createdAt,value
2019-04-21T00:01:03.948Z,67.88
2019-04-21T00:03:40.045Z,67.89
2019-04-21T00:06:27.051Z,67.99
2019-04-21T00:08:57.921Z,67.27
2019-04-21T00:11:24.972Z,66.32
2019-04-21T00:13:49.708Z,65.38
2019-04-21T00:16:10.673Z,65.07
2019-04-21T00:18:50.581Z,65.25
2019-04-21T00:21:28.306Z,65.07
2019-04-21T00:24:21.531Z,64.96
2019-04-21T00:26:57.422Z,64.82
2019-04-21T00:29:30.376Z,64.85
2019-04-21T00:31:56.632Z,64.90
2019-04-21T00:34:11.188Z,64.89
2019-04-21T00:36:50.263Z,64.47
2019-04-21T00:39:43.347Z,64.16
2019-04-21T00:42:00.940Z,64.03
2019-04-21T00:44:24.479Z,64.02
2019-04-21T00:47:00.590Z,64.70
2019-04-21T00:49:33.043Z,64.58
2019-04-21T00:52:35.383Z,64.73
2019-04-21T00:55:03.937Z,64.81
2019-04-21T00:57:25.254Z,64.58
2019-04-21T00:59:55.675Z,64.39
2019-04-21T01:02:29.749Z,64.66
2019-04-21T01:05:06.359Z,64.43
2019-04-21T01:07:32.034Z,64.24
2019-04-21T01:09:54.091Z,64.02
2019-04-21T01:12:33.409Z,64.07
2019-04-21T01:15:04.754Z,63.28
2019-04-21T01:17:35.608Z,63.70
2019-04-21T01:19:57.492Z,63.61
2019-04-21T01:22:13.871Z,63.50
2019-04-21T01:24:46.609Z,64.11
2019-04-21T01:27:26.309Z,64.29
2019-04-21T01:30:08.552Z,64.37
2019-04-21T01:32:40.585Z,64.74
2019-04-21T01:35:10.157Z,64.60
2019-04-21T01:37:44.287Z,64.74
2019-04-21T01:40:16.251Z,64.53
2019-04-21T01:42:43.026Z,64.96
2019-04-21T01:45:09.336Z,64.86
2019-04-21T01:47:44.902Z,65.01
2019-04-21T01:50:02.642Z,65.22
2019-04-21T01:52:54.621Z,65.44
2019-04-21T01:55:44.798Z,65.58
2019-04-21T01:58:11.746Z,65.18
2019-04-21T02:00:55.486Z,65.11
2019-04-21T02:03:48.700Z,65.18
2019-04-21T02:06:06.376Z,65.40
2019-04-21T02:08:27.514Z,65.47
2019-04-21T02:11:08.041Z,65.68
2019-04-21T02:13:28.260Z,65.52
2019-04-21T02:16:07.932Z,66.24
2019-04-21T02:18:37.394Z,66.58
2019-04-21T02:20:52.869Z,66.81
2019-04-21T02:26:09.721Z,67.64
2019-04-21T02:28:55.578Z,67.45
2019-04-21T02:31:20.518Z,67.22
2019-04-21T02:33:54.298Z,67.93
2019-04-21T02:38:56.318Z,68.21
2019-04-21T02:41:28.371Z,68.19
2019-04-21T02:44:00.670Z,68.26
2019-04-21T02:46:35.229Z,68.54
2019-04-21T02:49:11.286Z,69.16
2019-04-21T02:59:17.302Z,69.89
2019-04-21T03:01:56.721Z,70.12
2019-04-21T03:05:17.757Z,70.45
2019-04-21T03:07:46.431Z,70.64
2019-04-21T03:10:11.540Z,70.73
2019-04-21T03:12:37.681Z,71.37
2019-04-21T03:15:29.424Z,71.15
2019-04-21T03:17:54.957Z,71.63
2019-04-21T03:20:19.145Z,72.33
2019-04-21T03:22:42.688Z,72.62
2019-04-21T03:30:29.250Z,72.96
2019-04-21T03:33:29.723Z,72.75
2019-04-21T03:37:52.924Z,72.89
2019-04-21T03:40:18.768Z,73.32
2019-04-21T03:47:55.172Z,74.20
2019-04-21T03:50:30.098Z,74.34
2019-04-21T03:53:03.518Z,75.07
2019-04-21T03:58:19.512Z,76.49
2019-04-21T04:01:00.439Z,76.46
2019-04-21T04:06:49.269Z,75.98
2019-04-21T04:09:21.379Z,75.86
2019-04-21T04:11:53.235Z,76.50
2019-04-21T04:16:57.091Z,77.12
2019-04-21T04:19:18.676Z,76.97
2019-04-21T04:22:01.275Z,76.71
2019-04-21T04:24:33.990Z,76.32
2019-04-21T04:31:53.454Z,76.24
2019-04-21T04:34:27.537Z,76.32
2019-04-21T04:40:07.307Z,75.77
2019-04-21T04:42:43.306Z,76.26
2019-04-21T04:45:15.738Z,76.73
2019-04-21T04:47:34.874Z,76.44
2019-04-21T04:50:22.639Z,76.03
2019-04-21T04:57:46.614Z,76.37
2019-04-21T05:05:17.325Z,75.96
2019-04-21T05:10:04.304Z,76.71
2019-04-21T05:15:11.494Z,77.06
2019-04-21T05:17:46.455Z,76.49
2019-04-21T05:22:42.676Z,75.38
2019-04-21T05:25:03.472Z,75.48
2019-04-21T05:27:43.293Z,81.91
2019-04-21T05:30:29.085Z,83.86
2019-04-21T05:33:09.240Z,80.10
2019-04-21T05:36:11.501Z,75.46
2019-04-21T05:38:57.053Z,74.10
2019-04-21T05:41:20.647Z,74.17
2019-04-21T05:43:56.357Z,75.14
2019-04-21T05:46:32.394Z,75.19
2019-04-21T05:49:05.814Z,76.23
2019-04-21T05:51:31.774Z,76.33
2019-04-21T05:54:19.298Z,75.66
2019-04-21T05:56:45.687Z,74.89
2019-04-21T05:59:10.296Z,74.25
2019-04-21T06:01:47.061Z,72.58
2019-04-21T06:04:17.491Z,71.69
2019-04-21T06:06:55.444Z,70.35
2019-04-21T06:09:16.142Z,69.41
2019-04-21T06:11:49.737Z,68.25
2019-04-21T06:14:21.717Z,67.46
2019-04-21T06:16:56.573Z,66.52
2019-04-21T06:19:22.326Z,64.15
2019-04-21T06:21:51.248Z,64.16
2019-04-21T06:24:27.994Z,61.89
2019-04-21T06:27:10.935Z,60.88
2019-04-21T06:29:25.461Z,59.16
2019-04-21T06:34:24.602Z,58.23
2019-04-21T06:37:07.855Z,57.18
2019-04-21T06:39:40.515Z,56.41
2019-04-21T06:42:02.828Z,53.76
2019-04-21T06:44:38.883Z,52.97
2019-04-21T06:47:17.922Z,51.91
2019-04-21T06:49:41.255Z,50.70
2019-04-21T06:52:18.042Z,49.50
2019-04-21T06:54:48.216Z,48.80
2019-04-21T06:57:16.822Z,48.50
2019-04-21T06:59:38.434Z,47.31
2019-04-21T07:02:30.659Z,47.06
2019-04-21T07:04:50.071Z,46.79
2019-04-21T07:07:18.913Z,47.68
2019-04-21T07:09:51.019Z,47.33
2019-04-21T07:12:12.305Z,43.69
2019-04-21T07:14:49.834Z,38.97
2019-04-21T07:17:24.616Z,38.97
2019-04-21T07:19:55.571Z,37.97
2019-04-21T07:22:24.488Z,36.78
2019-04-21T07:24:54.059Z,36.12
2019-04-21T07:27:24.118Z,35.21
2019-04-21T07:29:59.536Z,34.31
2019-04-21T07:32:26.453Z,34.98
2019-04-21T07:35:00.219Z,34.68
2019-04-21T07:37:33.207Z,33.38
2019-04-21T07:39:56.017Z,32.48
2019-04-21T07:42:24.076Z,32.80
2019-04-21T07:44:53.459Z,32.34
2019-04-21T07:47:44.045Z,31.90
2019-04-21T07:50:24.436Z,31.01
2019-04-21T07:53:03.228Z,30.81
2019-04-21T07:57:56.187Z,31.25
2019-04-21T08:00:36.884Z,31.05
2019-04-21T08:03:21.938Z,32.05
2019-04-21T08:05:38.962Z,31.33
2019-04-21T08:07:59.598Z,30.60
2019-04-21T08:10:34.976Z,30.05
2019-04-21T08:13:09.808Z,29.47
2019-04-21T08:15:40.281Z,28.61
2019-04-21T08:18:11.799Z,29.42
2019-04-21T08:20:45.205Z,30.20
2019-04-21T08:23:13.167Z,29.24
2019-04-21T08:25:53.648Z,27.88
2019-04-21T08:28:08.957Z,27.81
2019-04-21T08:30:44.368Z,27.23
2019-04-21T08:33:25.039Z,27.58
2019-04-21T08:38:21.901Z,26.31
2019-04-21T08:40:49.258Z,25.82
2019-04-21T08:43:29.054Z,25.89
2019-04-21T08:45:52.744Z,25.55
2019-04-21T08:48:22.573Z,25.49
2019-04-21T08:51:05.586Z,25.74
2019-04-21T08:53:39.927Z,24.19
2019-04-21T08:56:18.207Z,24.72
2019-04-21T08:59:09.532Z,25.45
2019-04-21T09:01:49.609Z,24.85
2019-04-21T09:04:18.527Z,24.42
2019-04-21T09:06:58.919Z,24.10
2019-04-21T09:09:25.903Z,25.15
2019-04-21T09:11:56.132Z,23.88
2019-04-21T09:14:24.467Z,23.99
2019-04-21T09:16:52.860Z,23.84
2019-04-21T09:19:41.979Z,23.60
2019-04-21T09:21:55.195Z,23.04
2019-04-21T09:24:26.785Z,22.96
2019-04-21T09:27:00.106Z,23.36
2019-04-21T09:29:22.143Z,24.58
2019-04-21T09:31:44.443Z,23.76
2019-04-21T09:34:20.772Z,22.33
2019-04-21T09:36:49.519Z,23.42
2019-04-21T09:39:18.836Z,22.54
2019-04-21T09:41:49.905Z,23.39
2019-04-21T09:44:24.943Z,22.67
2019-04-21T09:46:52.431Z,22.40
2019-04-21T09:49:24.159Z,22.35
2019-04-21T09:51:50.544Z,22.79
2019-04-21T09:54:24.801Z,22.08
2019-04-21T09:56:58.546Z,22.48
2019-04-21T09:59:28.146Z,21.82
2019-04-21T10:02:05.694Z,20.71
2019-04-21T10:04:24.188Z,21.56
2019-04-21T10:06:54.418Z,20.55
2019-04-21T10:09:24.266Z,21.18
2019-04-21T10:11:54.836Z,21.00
2019-04-21T10:14:24.406Z,20.82
2019-04-21T10:17:13.060Z,19.49
2019-04-21T10:19:43.844Z,20.80
2019-04-21T10:22:16.916Z,20.56
2019-04-21T10:24:46.731Z,20.21
2019-04-21T10:27:17.124Z,20.01
2019-04-21T10:29:47.220Z,19.47
2019-04-21T10:32:20.145Z,19.84
2019-04-21T10:34:49.433Z,20.34
2019-04-21T10:37:18.927Z,19.98
2019-04-21T10:39:49.532Z,18.74
2019-04-21T10:42:19.495Z,18.25
2019-04-21T10:44:49.407Z,18.58
2019-04-21T10:47:18.777Z,18.10
2019-04-21T10:49:48.659Z,19.21
2019-04-21T10:52:27.902Z,19.30
2019-04-21T10:55:21.874Z,18.52
2019-04-21T10:57:30.520Z,17.37
2019-04-21T11:00:01.382Z,17.01
2019-04-21T11:02:41.002Z,16.95
2019-04-21T11:05:10.855Z,16.10
2019-04-21T11:08:05.151Z,16.76
2019-04-21T11:10:22.622Z,17.10
2019-04-21T11:12:52.646Z,16.57
2019-04-21T11:15:23.357Z,16.90
2019-04-21T11:17:52.616Z,17.27
2019-04-21T11:20:22.804Z,17.53
2019-04-21T11:22:53.662Z,17.40
2019-04-21T11:25:24.305Z,17.47
2019-04-21T11:27:53.563Z,17.09
2019-04-21T11:30:23.381Z,16.80
2019-04-21T11:32:53.154Z,17.36
2019-04-21T11:35:23.372Z,17.42
2019-04-21T11:37:59.404Z,17.01
2019-04-21T11:40:25.443Z,16.51
2019-04-21T11:42:55.883Z,16.90
2019-04-21T11:45:34.698Z,16.73
2019-04-21T11:48:24.122Z,16.61
2019-04-21T11:50:53.569Z,17.42
2019-04-21T11:53:23.291Z,17.40
2019-04-21T11:55:53.889Z,17.36
2019-04-21T11:58:23.727Z,17.47
2019-04-21T12:01:00.498Z,16.86
2019-04-21T12:03:29.668Z,17.26
2019-04-21T12:05:59.540Z,16.96
2019-04-21T12:08:36.476Z,16.52
2019-04-21T12:10:59.860Z,15.73
2019-04-21T12:13:30.012Z,16.05
2019-04-21T12:16:00.959Z,16.20
2019-04-21T12:18:32.048Z,15.51
2019-04-21T12:21:01.385Z,15.96
2019-04-21T12:23:30.598Z,14.59
2019-04-21T12:26:01.116Z,15.48
2019-04-21T12:28:30.581Z,15.66
2019-04-21T12:31:00.231Z,15.53
2019-04-21T12:34:03.821Z,14.98
2019-04-21T12:36:33.803Z,15.18
2019-04-21T12:39:05.196Z,16.03
2019-04-21T12:41:34.167Z,15.69
2019-04-21T12:44:04.610Z,15.86
2019-04-21T12:46:34.193Z,15.62
2019-04-21T12:49:04.129Z,15.67
2019-04-21T12:51:33.822Z,15.29
2019-04-21T12:54:03.771Z,15.99
2019-04-21T12:56:33.672Z,15.89
2019-04-21T12:59:02.900Z,14.17
2019-04-21T13:01:32.759Z,15.18
2019-04-21T13:04:02.165Z,15.25
2019-04-21T13:06:31.775Z,14.71
2019-04-21T13:09:05.289Z,14.55
2019-04-21T13:11:33.158Z,15.05
2019-04-21T13:14:02.466Z,15.03
2019-04-21T13:16:31.857Z,14.82
2019-04-21T13:19:01.087Z,14.45
2019-04-21T13:21:30.318Z,14.86
2019-04-21T13:23:59.465Z,15.24
2019-04-21T13:26:37.247Z,16.06
2019-04-21T13:29:00.499Z,15.66
2019-04-21T13:31:30.088Z,15.75
2019-04-21T13:33:59.934Z,15.90
2019-04-21T13:36:29.643Z,15.58
2019-04-21T13:42:02.762Z,15.69
2019-04-21T13:44:23.497Z,15.55
2019-04-21T13:46:52.813Z,15.24
2019-04-21T13:49:23.363Z,15.46
2019-04-21T13:51:54.068Z,15.26
2019-04-21T13:54:23.301Z,15.38
2019-04-21T13:56:54.380Z,14.90
2019-04-21T13:59:24.444Z,15.00
2019-04-21T14:01:54.072Z,14.60
2019-04-21T14:04:23.458Z,14.69
2019-04-21T14:06:54.166Z,15.96
2019-04-21T14:09:36.043Z,15.24
2019-04-21T14:11:55.773Z,14.99
2019-04-21T14:14:26.157Z,15.21
2019-04-21T14:16:56.160Z,15.34
2019-04-21T14:19:25.683Z,15.65
2019-04-21T14:21:57.084Z,15.88
2019-04-21T14:24:26.798Z,16.02
2019-04-21T14:26:56.262Z,16.11
2019-04-21T14:29:25.824Z,15.79
2019-04-21T14:31:56.030Z,15.52
2019-04-21T14:34:25.976Z,15.75
2019-04-21T14:36:55.287Z,15.97
2019-04-21T14:39:24.510Z,16.40
2019-04-21T14:41:53.879Z,16.65
2019-04-21T14:44:23.070Z,15.60
2019-04-21T14:47:00.838Z,15.58
2019-04-21T14:49:49.212Z,15.78
2019-04-21T14:52:25.304Z,15.58
2019-04-21T14:55:16.715Z,15.77
2019-04-21T14:57:47.296Z,15.55
2019-04-21T15:00:19.043Z,16.32
2019-04-21T15:02:49.627Z,16.16
2019-04-21T15:05:19.755Z,15.99
2019-04-21T15:07:49.184Z,16.05
2019-04-21T15:10:23.571Z,16.77
2019-04-21T15:12:49.849Z,16.58
2019-04-21T15:15:20.186Z,16.93
2019-04-21T15:17:49.519Z,17.14
2019-04-21T15:20:20.210Z,17.31
2019-04-21T15:22:50.425Z,17.59
2019-04-21T15:25:20.181Z,17.74
2019-04-21T15:27:50.765Z,17.56
2019-04-21T15:30:20.763Z,17.44
2019-04-21T15:32:50.601Z,17.79
2019-04-21T15:35:21.321Z,18.83
2019-04-21T15:37:51.985Z,17.90
2019-04-21T15:40:34.617Z,17.49
2019-04-21T15:42:52.677Z,17.34
2019-04-21T15:45:22.064Z,18.03
2019-04-21T15:47:51.877Z,17.29
2019-04-21T15:50:23.070Z,17.32
2019-04-21T15:52:53.830Z,16.99
2019-04-21T15:55:44.602Z,17.30
2019-04-21T15:58:28.383Z,17.98
2019-04-21T16:01:20.643Z,18.23
2019-04-21T16:03:49.860Z,18.92
2019-04-21T16:06:19.461Z,18.25
2019-04-21T16:08:52.339Z,18.23
2019-04-21T16:11:19.893Z,18.44
2019-04-21T16:13:49.810Z,18.30
2019-04-21T16:16:20.212Z,18.45
2019-04-21T16:18:50.044Z,18.38
2019-04-21T16:21:19.835Z,18.63
2019-04-21T16:23:49.023Z,17.88
2019-04-21T16:26:20.246Z,17.25
2019-04-21T16:28:49.541Z,17.53
2019-04-21T16:31:18.728Z,17.55
2019-04-21T16:33:49.194Z,17.67
2019-04-21T16:36:19.956Z,17.39
2019-04-21T16:38:49.431Z,17.67
2019-04-21T16:41:20.238Z,17.95
2019-04-21T16:43:49.529Z,17.94
2019-04-21T16:46:19.657Z,17.91
2019-04-21T16:48:49.706Z,17.52
2019-04-21T16:51:20.160Z,18.22
2019-04-21T16:54:08.349Z,18.33
2019-04-21T16:56:43.861Z,17.76
2019-04-21T16:59:24.450Z,17.62
2019-04-21T17:01:54.517Z,18.22
2019-04-21T17:04:24.468Z,18.45
2019-04-21T17:06:55.384Z,17.58
2019-04-21T17:09:24.709Z,17.90
2019-04-21T17:11:59.951Z,18.17
2019-04-21T17:14:47.828Z,17.62
2019-04-21T17:17:17.940Z,18.10
2019-04-21T17:19:29.823Z,18.45
2019-04-21T17:21:57.779Z,18.34
2019-04-21T17:24:28.487Z,18.81
2019-04-21T17:26:57.818Z,18.84
2019-04-21T17:29:28.536Z,18.50
2019-04-21T17:31:59.356Z,18.32
2019-04-21T17:34:31.891Z,18.63
2019-04-21T17:37:01.006Z,18.57
2019-04-21T17:39:31.126Z,18.76
2019-04-21T17:42:14.177Z,19.30
2019-04-21T17:44:31.299Z,19.90
2019-04-21T17:47:05.207Z,20.55
2019-04-21T17:49:32.844Z,21.20
2019-04-21T17:52:25.512Z,21.29
2019-04-21T17:55:10.349Z,21.25
2019-04-21T17:57:53.031Z,21.79
2019-04-21T18:00:52.053Z,22.29
2019-04-21T18:03:02.083Z,22.90
2019-04-21T18:05:31.953Z,23.10
2019-04-21T18:07:54.769Z,23.48
2019-04-21T18:10:33.428Z,23.74
2019-04-21T18:12:55.526Z,24.12
2019-04-21T18:15:35.594Z,24.28
2019-04-21T18:17:47.768Z,24.45
2019-04-21T18:20:21.907Z,24.75
2019-04-21T18:23:15.349Z,25.32
2019-04-21T18:25:47.151Z,25.75
2019-04-21T18:28:10.360Z,26.41
2019-04-21T18:30:52.094Z,26.87
2019-04-21T18:33:28.053Z,28.05
2019-04-21T18:36:13.442Z,28.75
2019-04-21T18:39:30.039Z,28.75
2019-04-21T18:42:13.097Z,29.64
2019-04-21T18:45:30.437Z,29.51
2019-04-21T18:47:50.009Z,30.59
2019-04-21T18:50:24.229Z,31.54
2019-04-21T18:53:08.867Z,30.40
2019-04-21T18:55:36.182Z,32.27
2019-04-21T18:58:01.012Z,31.89
2019-04-21T19:00:34.473Z,32.54
2019-04-21T19:03:03.150Z,31.20
2019-04-21T19:05:32.488Z,32.87
2019-04-21T19:08:18.829Z,32.52
2019-04-21T19:10:56.191Z,33.02
2019-04-21T19:13:49.466Z,34.37
2019-04-21T19:16:15.211Z,35.12
2019-04-21T19:20:54.066Z,35.68
2019-04-21T19:23:36.339Z,36.06
2019-04-21T19:26:11.369Z,36.35
2019-04-21T19:28:25.242Z,36.83
2019-04-21T19:31:04.245Z,37.08
2019-04-21T19:33:27.373Z,37.54
2019-04-21T19:35:43.454Z,37.68
2019-04-21T19:38:16.202Z,38.09
2019-04-21T19:40:59.225Z,38.25
2019-04-21T19:43:35.818Z,38.25
2019-04-21T19:46:03.053Z,38.32
2019-04-21T19:48:36.293Z,38.45
2019-04-21T19:51:05.333Z,38.39
2019-04-21T19:53:29.905Z,38.86
2019-04-21T19:55:50.162Z,39.56
2019-04-21T19:58:27.506Z,39.98
2019-04-21T20:00:53.452Z,40.40
2019-04-21T20:03:21.438Z,40.94
2019-04-21T20:06:00.382Z,41.48
2019-04-21T20:08:36.613Z,42.37
2019-04-21T20:11:10.203Z,42.92
2019-04-21T20:13:52.737Z,43.09
2019-04-21T20:16:15.052Z,43.02
2019-04-21T20:18:34.818Z,43.33
2019-04-21T20:20:56.538Z,43.13
2019-04-21T20:23:31.701Z,43.80
2019-04-21T20:26:02.309Z,43.88
2019-04-21T20:28:44.066Z,43.84
2019-04-21T20:31:19.198Z,44.62
2019-04-21T20:33:52.629Z,44.96
2019-04-21T20:36:21.114Z,45.25
2019-04-21T20:38:42.225Z,46.01
2019-04-21T20:41:22.480Z,45.96
2019-04-21T20:43:54.130Z,46.93
2019-04-21T20:46:24.861Z,47.58
2019-04-21T20:48:52.428Z,48.29
2019-04-21T20:51:31.346Z,48.37
2019-04-21T20:53:53.680Z,48.11
2019-04-21T20:56:19.448Z,47.87
2019-04-21T20:58:59.967Z,48.09
2019-04-21T21:01:34.781Z,48.02
2019-04-21T21:04:00.367Z,47.91
2019-04-21T21:06:33.741Z,48.44
2019-04-21T21:09:02.951Z,48.49
2019-04-21T21:12:06.621Z,49.11
2019-04-21T21:14:07.438Z,49.71
2019-04-21T21:16:44.706Z,49.40
2019-04-21T21:21:34.475Z,49.40
2019-04-21T21:24:09.299Z,49.24
2019-04-21T21:26:47.233Z,50.52
2019-04-21T21:29:03.663Z,51.28
2019-04-21T21:31:41.449Z,51.39
2019-04-21T21:34:15.282Z,51.42
2019-04-21T21:36:41.542Z,51.67
2019-04-21T21:39:15.476Z,51.40
2019-04-21T21:41:35.611Z,52.38
2019-04-21T21:44:05.819Z,52.87
2019-04-21T21:46:44.169Z,53.10
2019-04-21T21:49:19.049Z,54.24
2019-04-21T21:51:44.995Z,54.39
2019-04-21T21:54:04.770Z,55.97
2019-04-21T21:56:34.395Z,55.54
2019-04-21T21:59:11.725Z,54.88
2019-04-21T22:01:40.683Z,54.51
2019-04-21T22:04:13.383Z,55.30
2019-04-21T22:06:47.281Z,54.89
2019-04-21T22:09:12.547Z,55.65
2019-04-21T22:11:42.256Z,56.66
2019-04-21T22:14:20.400Z,55.90
2019-04-21T22:17:00.980Z,56.95
2019-04-21T22:19:34.016Z,57.10
2019-04-21T22:22:08.368Z,57.65
2019-04-21T22:24:35.069Z,58.04
2019-04-21T22:26:47.277Z,57.61
2019-04-21T22:29:16.817Z,57.04
2019-04-21T22:31:46.884Z,57.42
2019-04-21T22:34:21.867Z,58.18
2019-04-21T22:36:58.972Z,57.23
2019-04-21T22:39:37.546Z,57.26
2019-04-21T22:42:01.822Z,57.45
2019-04-21T22:44:22.618Z,58.10
2019-04-21T22:47:04.250Z,58.71
2019-04-21T22:49:23.819Z,60.75
2019-04-21T22:51:53.959Z,59.95
2019-04-21T22:54:31.448Z,58.81
2019-04-21T22:57:02.588Z,57.91
2019-04-21T22:59:27.917Z,58.18
2019-04-21T23:01:57.618Z,60.15
2019-04-21T23:04:36.833Z,59.78
2019-04-21T23:07:02.834Z,59.77
2019-04-21T23:09:28.964Z,60.07
2019-04-21T23:12:01.342Z,59.99
2019-04-21T23:14:33.899Z,60.09
2019-04-21T23:17:26.619Z,60.95
2019-04-21T23:19:46.030Z,61.15
2019-04-21T23:22:23.208Z,62.42
2019-04-21T23:24:51.583Z,62.79
2019-04-21T23:27:13.144Z,62.71
2019-04-21T23:29:58.972Z,63.09
2019-04-21T23:32:22.351Z,64.04
2019-04-21T23:34:41.751Z,62.78
2019-04-21T23:37:16.293Z,62.24
2019-04-21T23:39:41.557Z,62.92
2019-04-21T23:42:11.217Z,64.09
2019-04-21T23:44:47.027Z,64.61
2019-04-21T23:47:20.005Z,64.67
2019-04-21T23:49:51.139Z,63.77
2019-04-21T23:52:15.995Z,63.05
2019-04-21T23:54:45.295Z,62.45
2019-04-21T23:57:23.439Z,62.39
2019-04-21T23:59:50.365Z,62.69
